sensor_id;sensor_type;location;lat;lon;timestamp;temperature;humidity
37782;DHT22;23621;50.878;4.584;2022-07-24T00:00:08;18.90;99.90
37782;DHT22;23621;50.878;4.584;2022-07-24T00:02:34;18.90;99.90
37782;DHT22;23621;50.878;4.584;2022-07-24T00:05:01;18.80;99.90
37782;DHT22;23621;50.878;4.584;2022-07-24T00:07:27;18.80;99.90
37782;DHT22;23621;50.878;4.584;2022-07-24T00:09:54;18.70;99.90
37782;DHT22;23621;50.878;4.584;2022-07-24T00:12:20;18.70;99.90
37782;DHT22;23621;50.878;4.584;2022-07-24T00:14:46;18.70;99.90
37782;DHT22;23621;50.878;4.584;2022-07-24T00:17:12;18.60;99.90
37782;DHT22;23621;50.878;4.584;2022-07-24T00:19:37;18.60;99.90
37782;DHT22;23621;50.878;4.584;2022-07-24T00:22:03;18.50;99.90
37782;DHT22;23621;50.878;4.584;2022-07-24T00:24:29;18.50;99.90
37782;DHT22;23621;50.878;4.584;2022-07-24T00:26:55;18.60;99.90
37782;DHT22;23621;50.878;4.584;2022-07-24T00:29:21;18.60;99.90
37782;DHT22;23621;50.878;4.584;2022-07-24T00:31:47;18.60;99.90
37782;DHT22;23621;50.878;4.584;2022-07-24T00:34:12;18.60;99.90
37782;DHT22;23621;50.878;4.584;2022-07-24T00:36:38;18.60;99.90
37782;DHT22;23621;50.878;4.584;2022-07-24T00:39:07;18.50;99.90
37782;DHT22;23621;50.878;4.584;2022-07-24T00:41:33;18.50;99.90
37782;DHT22;23621;50.878;4.584;2022-07-24T00:44:05;18.50;99.90
37782;DHT22;23621;50.878;4.584;2022-07-24T00:46:31;18.30;99.90
37782;DHT22;23621;50.878;4.584;2022-07-24T00:48:57;18.20;99.90
37782;DHT22;23621;50.878;4.584;2022-07-24T00:51:23;18.20;99.90
37782;DHT22;23621;50.878;4.584;2022-07-24T00:53:49;18.10;99.90
37782;DHT22;23621;50.878;4.584;2022-07-24T00:56:15;18.10;99.90
37782;DHT22;23621;50.878;4.584;2022-07-24T00:58:41;18.00;99.90
37782;DHT22;23621;50.878;4.584;2022-07-24T01:01:06;18.00;99.90
37782;DHT22;23621;50.878;4.584;2022-07-24T01:03:32;18.00;99.90
37782;DHT22;23621;50.878;4.584;2022-07-24T01:05:58;18.00;99.90
37782;DHT22;23621;50.878;4.584;2022-07-24T01:08:24;18.00;99.90
37782;DHT22;23621;50.878;4.584;2022-07-24T01:10:50;18.00;99.90
37782;DHT22;23621;50.878;4.584;2022-07-24T01:13:16;18.00;99.90
37782;DHT22;23621;50.878;4.584;2022-07-24T01:15:42;18.00;99.90
37782;DHT22;23621;50.878;4.584;2022-07-24T01:18:08;18.00;99.90
37782;DHT22;23621;50.878;4.584;2022-07-24T01:20:38;17.80;99.90
37782;DHT22;23621;50.878;4.584;2022-07-24T01:23:04;17.80;99.90
37782;DHT22;23621;50.878;4.584;2022-07-24T01:25:30;17.80;99.90
37782;DHT22;23621;50.878;4.584;2022-07-24T01:27:56;17.80;99.90
37782;DHT22;23621;50.878;4.584;2022-07-24T01:30:23;17.80;99.90
37782;DHT22;23621;50.878;4.584;2022-07-24T01:32:49;17.70;99.90
37782;DHT22;23621;50.878;4.584;2022-07-24T01:35:15;17.70;99.90
37782;DHT22;23621;50.878;4.584;2022-07-24T01:37:41;17.70;99.90
37782;DHT22;23621;50.878;4.584;2022-07-24T01:40:07;17.60;99.90
37782;DHT22;23621;50.878;4.584;2022-07-24T01:42:33;17.60;99.90
37782;DHT22;23621;50.878;4.584;2022-07-24T01:44:58;17.60;99.90
37782;DHT22;23621;50.878;4.584;2022-07-24T01:47:24;17.60;99.90
37782;DHT22;23621;50.878;4.584;2022-07-24T01:49:50;17.70;99.90
37782;DHT22;23621;50.878;4.584;2022-07-24T01:52:15;17.60;99.90
37782;DHT22;23621;50.878;4.584;2022-07-24T01:54:41;17.50;99.90
37782;DHT22;23621;50.878;4.584;2022-07-24T01:57:07;17.50;99.90
37782;DHT22;23621;50.878;4.584;2022-07-24T01:59:33;17.50;99.90
37782;DHT22;23621;50.878;4.584;2022-07-24T02:01:58;17.40;99.90
37782;DHT22;23621;50.878;4.584;2022-07-24T02:04:24;17.40;99.90
37782;DHT22;23621;50.878;4.584;2022-07-24T02:06:50;17.30;99.90
37782;DHT22;23621;50.878;4.584;2022-07-24T02:09:16;17.30;99.90
37782;DHT22;23621;50.878;4.584;2022-07-24T02:11:41;17.30;99.90
37782;DHT22;23621;50.878;4.584;2022-07-24T02:14:07;17.30;99.90
37782;DHT22;23621;50.878;4.584;2022-07-24T02:16:33;17.30;99.90
37782;DHT22;23621;50.878;4.584;2022-07-24T02:18:59;17.30;99.90
37782;DHT22;23621;50.878;4.584;2022-07-24T02:21:25;17.30;99.90
37782;DHT22;23621;50.878;4.584;2022-07-24T02:23:50;17.30;99.90
37782;DHT22;23621;50.878;4.584;2022-07-24T02:26:16;17.40;99.90
37782;DHT22;23621;50.878;4.584;2022-07-24T02:28:42;17.50;99.90
37782;DHT22;23621;50.878;4.584;2022-07-24T02:31:07;17.40;99.90
37782;DHT22;23621;50.878;4.584;2022-07-24T02:33:33;17.30;99.90
37782;DHT22;23621;50.878;4.584;2022-07-24T02:35:59;17.40;99.90
37782;DHT22;23621;50.878;4.584;2022-07-24T02:38:25;17.40;99.90
37782;DHT22;23621;50.878;4.584;2022-07-24T02:40:50;17.40;99.90
37782;DHT22;23621;50.878;4.584;2022-07-24T02:43:16;17.30;99.90
37782;DHT22;23621;50.878;4.584;2022-07-24T02:45:42;17.20;99.90
37782;DHT22;23621;50.878;4.584;2022-07-24T02:48:08;17.10;99.90
37782;DHT22;23621;50.878;4.584;2022-07-24T02:50:34;17.10;99.90
37782;DHT22;23621;50.878;4.584;2022-07-24T02:53:01;17.10;99.90
37782;DHT22;23621;50.878;4.584;2022-07-24T02:55:27;17.10;99.90
37782;DHT22;23621;50.878;4.584;2022-07-24T02:57:54;17.20;99.90
37782;DHT22;23621;50.878;4.584;2022-07-24T03:00:21;17.20;99.90
37782;DHT22;23621;50.878;4.584;2022-07-24T03:02:47;17.20;99.90
37782;DHT22;23621;50.878;4.584;2022-07-24T03:05:13;17.20;99.90
37782;DHT22;23621;50.878;4.584;2022-07-24T03:07:39;17.20;99.90
37782;DHT22;23621;50.878;4.584;2022-07-24T03:10:06;17.20;99.90
37782;DHT22;23621;50.878;4.584;2022-07-24T03:12:32;17.10;99.90
37782;DHT22;23621;50.878;4.584;2022-07-24T03:14:58;17.10;99.90
37782;DHT22;23621;50.878;4.584;2022-07-24T03:17:24;17.10;99.90
37782;DHT22;23621;50.878;4.584;2022-07-24T03:19:50;17.10;99.90
37782;DHT22;23621;50.878;4.584;2022-07-24T03:22:16;17.20;99.90
37782;DHT22;23621;50.878;4.584;2022-07-24T03:24:42;17.20;99.90
37782;DHT22;23621;50.878;4.584;2022-07-24T03:27:08;17.20;99.90
37782;DHT22;23621;50.878;4.584;2022-07-24T03:29:33;17.10;99.90
37782;DHT22;23621;50.878;4.584;2022-07-24T03:31:59;17.00;99.90
37782;DHT22;23621;50.878;4.584;2022-07-24T03:34:25;17.00;99.90
37782;DHT22;23621;50.878;4.584;2022-07-24T03:36:51;16.90;99.90
37782;DHT22;23621;50.878;4.584;2022-07-24T03:39:17;16.90;99.90
37782;DHT22;23621;50.878;4.584;2022-07-24T03:41:42;16.90;99.90
37782;DHT22;23621;50.878;4.584;2022-07-24T03:44:08;16.90;99.90
37782;DHT22;23621;50.878;4.584;2022-07-24T03:46:34;16.90;99.90
37782;DHT22;23621;50.878;4.584;2022-07-24T03:49:00;16.90;99.90
37782;DHT22;23621;50.878;4.584;2022-07-24T03:51:26;16.90;99.90
37782;DHT22;23621;50.878;4.584;2022-07-24T03:53:52;16.90;99.90
37782;DHT22;23621;50.878;4.584;2022-07-24T03:56:19;16.70;99.90
37782;DHT22;23621;50.878;4.584;2022-07-24T03:58:45;16.60;99.90
37782;DHT22;23621;50.878;4.584;2022-07-24T04:01:10;16.60;99.90
37782;DHT22;23621;50.878;4.584;2022-07-24T04:03:37;16.60;99.90
37782;DHT22;23621;50.878;4.584;2022-07-24T04:06:04;16.60;99.90
37782;DHT22;23621;50.878;4.584;2022-07-24T04:08:31;16.60;99.90
37782;DHT22;23621;50.878;4.584;2022-07-24T04:10:57;16.60;99.90
37782;DHT22;23621;50.878;4.584;2022-07-24T04:13:27;16.60;99.90
37782;DHT22;23621;50.878;4.584;2022-07-24T04:15:54;16.60;99.90
37782;DHT22;23621;50.878;4.584;2022-07-24T04:18:20;16.70;99.90
37782;DHT22;23621;50.878;4.584;2022-07-24T04:20:47;16.70;99.90
37782;DHT22;23621;50.878;4.584;2022-07-24T04:23:13;16.70;99.90
37782;DHT22;23621;50.878;4.584;2022-07-24T04:25:38;16.70;99.90
37782;DHT22;23621;50.878;4.584;2022-07-24T04:28:04;16.70;99.90
37782;DHT22;23621;50.878;4.584;2022-07-24T04:30:30;16.60;99.90
37782;DHT22;23621;50.878;4.584;2022-07-24T04:32:56;16.50;99.90
37782;DHT22;23621;50.878;4.584;2022-07-24T04:35:23;16.50;99.90
37782;DHT22;23621;50.878;4.584;2022-07-24T04:37:48;16.60;99.90
37782;DHT22;23621;50.878;4.584;2022-07-24T04:40:14;16.70;99.90
37782;DHT22;23621;50.878;4.584;2022-07-24T04:42:40;16.80;99.90
37782;DHT22;23621;50.878;4.584;2022-07-24T04:45:06;16.70;99.90
37782;DHT22;23621;50.878;4.584;2022-07-24T04:47:34;16.70;99.90
37782;DHT22;23621;50.878;4.584;2022-07-24T04:50:00;16.80;99.90
37782;DHT22;23621;50.878;4.584;2022-07-24T04:52:26;16.80;99.90
37782;DHT22;23621;50.878;4.584;2022-07-24T04:54:52;16.90;99.90
37782;DHT22;23621;50.878;4.584;2022-07-24T04:57:18;16.90;99.90
37782;DHT22;23621;50.878;4.584;2022-07-24T04:59:43;16.90;99.90
37782;DHT22;23621;50.878;4.584;2022-07-24T05:02:09;16.90;99.90
37782;DHT22;23621;50.878;4.584;2022-07-24T05:04:35;16.80;99.90
37782;DHT22;23621;50.878;4.584;2022-07-24T05:07:04;16.90;99.90
37782;DHT22;23621;50.878;4.584;2022-07-24T05:09:30;16.90;99.90
37782;DHT22;23621;50.878;4.584;2022-07-24T05:11:55;16.90;99.90
37782;DHT22;23621;50.878;4.584;2022-07-24T05:14:21;16.90;99.90
37782;DHT22;23621;50.878;4.584;2022-07-24T05:16:47;16.80;99.90
37782;DHT22;23621;50.878;4.584;2022-07-24T05:19:13;16.90;99.90
37782;DHT22;23621;50.878;4.584;2022-07-24T05:21:39;16.90;99.90
37782;DHT22;23621;50.878;4.584;2022-07-24T05:24:05;17.00;99.90
37782;DHT22;23621;50.878;4.584;2022-07-24T05:26:31;17.00;99.90
37782;DHT22;23621;50.878;4.584;2022-07-24T05:28:58;17.00;99.90
37782;DHT22;23621;50.878;4.584;2022-07-24T05:31:25;17.00;99.90
37782;DHT22;23621;50.878;4.584;2022-07-24T05:33:51;17.10;99.90
37782;DHT22;23621;50.878;4.584;2022-07-24T05:36:16;17.10;99.90
37782;DHT22;23621;50.878;4.584;2022-07-24T05:38:42;17.20;99.90
37782;DHT22;23621;50.878;4.584;2022-07-24T05:41:10;17.30;99.90
37782;DHT22;23621;50.878;4.584;2022-07-24T05:43:36;17.40;99.90
37782;DHT22;23621;50.878;4.584;2022-07-24T05:46:03;17.40;99.90
37782;DHT22;23621;50.878;4.584;2022-07-24T05:48:29;17.50;99.90
37782;DHT22;23621;50.878;4.584;2022-07-24T05:50:54;17.60;99.90
37782;DHT22;23621;50.878;4.584;2022-07-24T05:53:20;17.60;99.90
37782;DHT22;23621;50.878;4.584;2022-07-24T05:55:46;17.60;99.90
37782;DHT22;23621;50.878;4.584;2022-07-24T05:58:12;17.60;99.90
37782;DHT22;23621;50.878;4.584;2022-07-24T06:00:38;17.60;99.90
37782;DHT22;23621;50.878;4.584;2022-07-24T06:03:04;17.70;99.90
37782;DHT22;23621;50.878;4.584;2022-07-24T06:05:29;17.80;99.90
37782;DHT22;23621;50.878;4.584;2022-07-24T06:07:55;17.80;99.90
37782;DHT22;23621;50.878;4.584;2022-07-24T06:10:21;17.90;99.90
37782;DHT22;23621;50.878;4.584;2022-07-24T06:12:47;17.90;99.90
37782;DHT22;23621;50.878;4.584;2022-07-24T06:15:12;18.00;99.90
37782;DHT22;23621;50.878;4.584;2022-07-24T06:17:38;18.00;99.90
37782;DHT22;23621;50.878;4.584;2022-07-24T06:20:06;18.00;99.90
37782;DHT22;23621;50.878;4.584;2022-07-24T06:22:32;18.10;99.90
37782;DHT22;23621;50.878;4.584;2022-07-24T06:24:58;18.20;99.90
37782;DHT22;23621;50.878;4.584;2022-07-24T06:27:23;18.30;99.90
37782;DHT22;23621;50.878;4.584;2022-07-24T06:29:49;18.40;99.90
37782;DHT22;23621;50.878;4.584;2022-07-24T06:32:15;18.40;99.90
37782;DHT22;23621;50.878;4.584;2022-07-24T06:34:40;18.50;99.90
37782;DHT22;23621;50.878;4.584;2022-07-24T06:37:06;18.50;99.90
37782;DHT22;23621;50.878;4.584;2022-07-24T06:39:32;18.60;99.90
37782;DHT22;23621;50.878;4.584;2022-07-24T06:41:57;18.70;99.90
37782;DHT22;23621;50.878;4.584;2022-07-24T06:44:23;18.80;99.90
37782;DHT22;23621;50.878;4.584;2022-07-24T06:46:49;18.80;99.90
37782;DHT22;23621;50.878;4.584;2022-07-24T06:49:15;18.90;99.90
37782;DHT22;23621;50.878;4.584;2022-07-24T06:51:41;19.10;99.90
37782;DHT22;23621;50.878;4.584;2022-07-24T06:54:07;19.10;99.90
37782;DHT22;23621;50.878;4.584;2022-07-24T06:56:33;19.30;99.90
37782;DHT22;23621;50.878;4.584;2022-07-24T06:58:58;19.40;99.90
37782;DHT22;23621;50.878;4.584;2022-07-24T07:01:25;19.60;99.90
37782;DHT22;23621;50.878;4.584;2022-07-24T07:03:54;19.60;99.90
37782;DHT22;23621;50.878;4.584;2022-07-24T07:06:20;19.70;99.90
37782;DHT22;23621;50.878;4.584;2022-07-24T07:08:46;19.80;99.90
37782;DHT22;23621;50.878;4.584;2022-07-24T07:11:12;19.80;99.90
37782;DHT22;23621;50.878;4.584;2022-07-24T07:13:38;19.80;99.90
37782;DHT22;23621;50.878;4.584;2022-07-24T07:16:04;20.00;99.90
37782;DHT22;23621;50.878;4.584;2022-07-24T07:18:29;20.20;99.90
37782;DHT22;23621;50.878;4.584;2022-07-24T07:20:55;20.40;99.90
37782;DHT22;23621;50.878;4.584;2022-07-24T07:23:22;20.40;99.90
37782;DHT22;23621;50.878;4.584;2022-07-24T07:25:48;20.40;99.90
37782;DHT22;23621;50.878;4.584;2022-07-24T07:28:15;20.50;99.90
37782;DHT22;23621;50.878;4.584;2022-07-24T07:30:41;20.60;99.90
37782;DHT22;23621;50.878;4.584;2022-07-24T07:33:06;20.60;99.90
37782;DHT22;23621;50.878;4.584;2022-07-24T07:35:32;20.60;99.90
37782;DHT22;23621;50.878;4.584;2022-07-24T07:37:58;20.80;99.90
37782;DHT22;23621;50.878;4.584;2022-07-24T07:40:25;20.90;99.90
37782;DHT22;23621;50.878;4.584;2022-07-24T07:42:51;21.00;99.90
37782;DHT22;23621;50.878;4.584;2022-07-24T07:45:17;21.00;99.90
37782;DHT22;23621;50.878;4.584;2022-07-24T07:47:43;21.20;99.90
37782;DHT22;23621;50.878;4.584;2022-07-24T07:50:09;21.40;99.90
37782;DHT22;23621;50.878;4.584;2022-07-24T07:52:35;21.50;99.90
37782;DHT22;23621;50.878;4.584;2022-07-24T07:55:03;21.60;99.90
37782;DHT22;23621;50.878;4.584;2022-07-24T07:57:30;21.70;99.90
37782;DHT22;23621;50.878;4.584;2022-07-24T07:59:56;21.80;99.90
37782;DHT22;23621;50.878;4.584;2022-07-24T08:02:22;21.90;99.90
37782;DHT22;23621;50.878;4.584;2022-07-24T08:04:47;22.00;99.90
37782;DHT22;23621;50.878;4.584;2022-07-24T08:07:13;22.00;99.90
37782;DHT22;23621;50.878;4.584;2022-07-24T08:09:39;22.10;99.90
37782;DHT22;23621;50.878;4.584;2022-07-24T08:12:05;22.10;99.90
37782;DHT22;23621;50.878;4.584;2022-07-24T08:14:31;22.30;99.90
37782;DHT22;23621;50.878;4.584;2022-07-24T08:16:58;22.20;99.90
37782;DHT22;23621;50.878;4.584;2022-07-24T08:19:24;22.30;99.90
37782;DHT22;23621;50.878;4.584;2022-07-24T08:21:49;22.40;99.90
37782;DHT22;23621;50.878;4.584;2022-07-24T08:24:15;22.40;99.90
37782;DHT22;23621;50.878;4.584;2022-07-24T08:26:49;22.60;99.90
37782;DHT22;23621;50.878;4.584;2022-07-24T08:29:16;22.60;99.90
37782;DHT22;23621;50.878;4.584;2022-07-24T08:31:42;22.70;99.90
37782;DHT22;23621;50.878;4.584;2022-07-24T08:34:08;22.80;99.90
37782;DHT22;23621;50.878;4.584;2022-07-24T08:36:34;22.80;99.90
37782;DHT22;23621;50.878;4.584;2022-07-24T08:39:00;22.90;99.90
37782;DHT22;23621;50.878;4.584;2022-07-24T08:41:30;23.00;99.90
37782;DHT22;23621;50.878;4.584;2022-07-24T08:43:58;23.00;99.90
37782;DHT22;23621;50.878;4.584;2022-07-24T08:46:26;23.00;99.90
37782;DHT22;23621;50.878;4.584;2022-07-24T08:48:53;23.10;99.90
37782;DHT22;23621;50.878;4.584;2022-07-24T08:51:20;23.20;99.90
37782;DHT22;23621;50.878;4.584;2022-07-24T08:53:46;23.20;99.90
37782;DHT22;23621;50.878;4.584;2022-07-24T08:56:13;23.30;99.90
37782;DHT22;23621;50.878;4.584;2022-07-24T08:58:40;23.30;99.90
37782;DHT22;23621;50.878;4.584;2022-07-24T09:01:06;23.30;99.90
37782;DHT22;23621;50.878;4.584;2022-07-24T09:03:43;23.50;99.90
37782;DHT22;23621;50.878;4.584;2022-07-24T09:06:10;23.50;99.90
37782;DHT22;23621;50.878;4.584;2022-07-24T09:09:00;23.40;99.90
37782;DHT22;23621;50.878;4.584;2022-07-24T09:11:26;23.60;99.90
37782;DHT22;23621;50.878;4.584;2022-07-24T09:13:59;23.60;99.90
37782;DHT22;23621;50.878;4.584;2022-07-24T09:16:44;23.70;99.90
37782;DHT22;23621;50.878;4.584;2022-07-24T09:19:11;23.80;99.90
37782;DHT22;23621;50.878;4.584;2022-07-24T09:21:40;23.90;99.90
37782;DHT22;23621;50.878;4.584;2022-07-24T09:24:20;24.10;99.90
37782;DHT22;23621;50.878;4.584;2022-07-24T09:26:56;24.20;99.90
37782;DHT22;23621;50.878;4.584;2022-07-24T09:29:25;24.30;99.90
37782;DHT22;23621;50.878;4.584;2022-07-24T09:31:55;24.30;99.90
37782;DHT22;23621;50.878;4.584;2022-07-24T09:34:23;24.40;99.90
37782;DHT22;23621;50.878;4.584;2022-07-24T09:39:23;24.50;99.90
37782;DHT22;23621;50.878;4.584;2022-07-24T09:41:52;24.60;99.90
37782;DHT22;23621;50.878;4.584;2022-07-24T09:44:18;24.60;99.90
37782;DHT22;23621;50.878;4.584;2022-07-24T09:46:54;24.70;99.90
37782;DHT22;23621;50.878;4.584;2022-07-24T09:49:21;24.80;99.60
37782;DHT22;23621;50.878;4.584;2022-07-24T09:54:42;24.90;99.50
37782;DHT22;23621;50.878;4.584;2022-07-24T10:02:20;25.20;99.80
37782;DHT22;23621;50.878;4.584;2022-07-24T10:04:47;25.30;98.70
37782;DHT22;23621;50.878;4.584;2022-07-24T10:07:16;25.20;99.90
37782;DHT22;23621;50.878;4.584;2022-07-24T10:09:47;25.20;99.90
37782;DHT22;23621;50.878;4.584;2022-07-24T10:12:20;25.30;99.40
37782;DHT22;23621;50.878;4.584;2022-07-24T10:14:47;25.30;99.30
37782;DHT22;23621;50.878;4.584;2022-07-24T10:17:15;25.40;98.80
37782;DHT22;23621;50.878;4.584;2022-07-24T10:19:50;25.30;98.90
37782;DHT22;23621;50.878;4.584;2022-07-24T10:22:21;25.40;98.90
37782;DHT22;23621;50.878;4.584;2022-07-24T10:25:07;25.40;98.60
37782;DHT22;23621;50.878;4.584;2022-07-24T10:27:36;25.50;98.40
37782;DHT22;23621;50.878;4.584;2022-07-24T10:30:06;25.60;98.30
37782;DHT22;23621;50.878;4.584;2022-07-24T10:32:33;25.60;98.30
37782;DHT22;23621;50.878;4.584;2022-07-24T10:40:23;25.70;98.30
37782;DHT22;23621;50.878;4.584;2022-07-24T10:45:32;26.00;97.50
37782;DHT22;23621;50.878;4.584;2022-07-24T10:48:18;26.00;98.30
37782;DHT22;23621;50.878;4.584;2022-07-24T10:51:03;26.10;97.00
37782;DHT22;23621;50.878;4.584;2022-07-24T10:56:27;26.30;96.80
37782;DHT22;23621;50.878;4.584;2022-07-24T11:01:42;26.50;96.80
37782;DHT22;23621;50.878;4.584;2022-07-24T11:07:20;26.40;96.10
37782;DHT22;23621;50.878;4.584;2022-07-24T11:10:00;26.20;97.10
37782;DHT22;23621;50.878;4.584;2022-07-24T11:12:31;26.20;98.00
37782;DHT22;23621;50.878;4.584;2022-07-24T11:14:59;26.40;97.20
37782;DHT22;23621;50.878;4.584;2022-07-24T11:17:45;26.30;98.70
37782;DHT22;23621;50.878;4.584;2022-07-24T11:20:14;26.20;98.30
37782;DHT22;23621;50.878;4.584;2022-07-24T11:22:49;26.40;97.10
37782;DHT22;23621;50.878;4.584;2022-07-24T11:25:21;26.50;97.20
37782;DHT22;23621;50.878;4.584;2022-07-24T11:27:56;26.40;97.60
37782;DHT22;23621;50.878;4.584;2022-07-24T11:30:24;26.40;98.30
37782;DHT22;23621;50.878;4.584;2022-07-24T11:32:50;26.30;98.80
37782;DHT22;23621;50.878;4.584;2022-07-24T11:35:27;26.60;97.90
37782;DHT22;23621;50.878;4.584;2022-07-24T11:37:53;26.60;96.80
37782;DHT22;23621;50.878;4.584;2022-07-24T11:40:21;26.60;96.90
37782;DHT22;23621;50.878;4.584;2022-07-24T11:42:57;26.80;97.20
37782;DHT22;23621;50.878;4.584;2022-07-24T11:45:23;26.80;98.50
37782;DHT22;23621;50.878;4.584;2022-07-24T11:47:49;26.80;96.90
37782;DHT22;23621;50.878;4.584;2022-07-24T11:50:14;26.80;97.10
37782;DHT22;23621;50.878;4.584;2022-07-24T11:52:41;27.10;97.10
37782;DHT22;23621;50.878;4.584;2022-07-24T11:55:13;27.00;97.00
37782;DHT22;23621;50.878;4.584;2022-07-24T11:57:42;27.10;96.40
37782;DHT22;23621;50.878;4.584;2022-07-24T12:00:13;27.30;96.80
37782;DHT22;23621;50.878;4.584;2022-07-24T12:02:48;27.50;95.70
37782;DHT22;23621;50.878;4.584;2022-07-24T12:05:24;27.60;96.10
37782;DHT22;23621;50.878;4.584;2022-07-24T12:07:50;27.80;96.10
37782;DHT22;23621;50.878;4.584;2022-07-24T12:10:19;27.90;95.00
37782;DHT22;23621;50.878;4.584;2022-07-24T12:12:49;27.80;96.90
37782;DHT22;23621;50.878;4.584;2022-07-24T12:15:16;27.60;96.50
37782;DHT22;23621;50.878;4.584;2022-07-24T12:18:02;27.60;96.40
37782;DHT22;23621;50.878;4.584;2022-07-24T12:20:33;27.80;96.20
37782;DHT22;23621;50.878;4.584;2022-07-24T12:23:03;27.60;97.10
37782;DHT22;23621;50.878;4.584;2022-07-24T12:25:30;27.60;96.30
37782;DHT22;23621;50.878;4.584;2022-07-24T12:28:25;27.60;96.90
37782;DHT22;23621;50.878;4.584;2022-07-24T12:30:52;27.60;96.70
37782;DHT22;23621;50.878;4.584;2022-07-24T12:33:20;27.60;97.30
37782;DHT22;23621;50.878;4.584;2022-07-24T12:35:58;27.60;97.60
37782;DHT22;23621;50.878;4.584;2022-07-24T12:38:32;27.60;97.10
37782;DHT22;23621;50.878;4.584;2022-07-24T12:43:29;28.10;96.20
37782;DHT22;23621;50.878;4.584;2022-07-24T12:46:05;28.20;96.10
37782;DHT22;23621;50.878;4.584;2022-07-24T12:48:31;28.30;95.80
37782;DHT22;23621;50.878;4.584;2022-07-24T12:51:06;28.10;98.10
37782;DHT22;23621;50.878;4.584;2022-07-24T12:53:36;27.70;97.00
37782;DHT22;23621;50.878;4.584;2022-07-24T12:56:09;27.50;98.10
37782;DHT22;23621;50.878;4.584;2022-07-24T12:58:57;27.70;96.70
37782;DHT22;23621;50.878;4.584;2022-07-24T13:01:26;27.90;95.80
37782;DHT22;23621;50.878;4.584;2022-07-24T13:04:00;28.10;97.30
37782;DHT22;23621;50.878;4.584;2022-07-24T13:06:44;28.00;96.20
37782;DHT22;23621;50.878;4.584;2022-07-24T13:09:13;28.20;96.00
37782;DHT22;23621;50.878;4.584;2022-07-24T13:11:40;28.20;94.80
37782;DHT22;23621;50.878;4.584;2022-07-24T13:14:07;28.30;96.40
37782;DHT22;23621;50.878;4.584;2022-07-24T13:16:36;28.30;97.20
37782;DHT22;23621;50.878;4.584;2022-07-24T13:19:03;28.20;96.20
37782;DHT22;23621;50.878;4.584;2022-07-24T13:21:29;28.40;95.60
37782;DHT22;23621;50.878;4.584;2022-07-24T13:23:55;28.60;94.80
37782;DHT22;23621;50.878;4.584;2022-07-24T13:26:21;28.90;95.90
37782;DHT22;23621;50.878;4.584;2022-07-24T13:28:47;29.00;95.40
37782;DHT22;23621;50.878;4.584;2022-07-24T13:31:14;29.00;94.80
37782;DHT22;23621;50.878;4.584;2022-07-24T13:33:40;29.00;94.50
37782;DHT22;23621;50.878;4.584;2022-07-24T13:36:07;29.10;95.20
37782;DHT22;23621;50.878;4.584;2022-07-24T13:38:33;29.00;94.00
37782;DHT22;23621;50.878;4.584;2022-07-24T13:40:58;29.00;95.00
37782;DHT22;23621;50.878;4.584;2022-07-24T13:43:24;29.00;94.70
37782;DHT22;23621;50.878;4.584;2022-07-24T13:45:53;29.10;94.40
37782;DHT22;23621;50.878;4.584;2022-07-24T13:48:19;29.10;93.90
37782;DHT22;23621;50.878;4.584;2022-07-24T13:50:45;29.10;94.60
37782;DHT22;23621;50.878;4.584;2022-07-24T13:53:10;29.10;94.40
37782;DHT22;23621;50.878;4.584;2022-07-24T13:55:36;29.30;92.90
37782;DHT22;23621;50.878;4.584;2022-07-24T13:58:02;29.40;93.40
37782;DHT22;23621;50.878;4.584;2022-07-24T14:00:28;29.50;93.30
37782;DHT22;23621;50.878;4.584;2022-07-24T14:02:54;29.50;93.80
37782;DHT22;23621;50.878;4.584;2022-07-24T14:05:24;29.50;93.80
37782;DHT22;23621;50.878;4.584;2022-07-24T14:07:51;29.60;93.10
37782;DHT22;23621;50.878;4.584;2022-07-24T14:10:17;29.70;92.70
37782;DHT22;23621;50.878;4.584;2022-07-24T14:12:43;29.80;93.00
37782;DHT22;23621;50.878;4.584;2022-07-24T14:15:09;29.80;93.30
37782;DHT22;23621;50.878;4.584;2022-07-24T14:17:35;29.80;92.80
37782;DHT22;23621;50.878;4.584;2022-07-24T14:20:02;30.00;93.50
37782;DHT22;23621;50.878;4.584;2022-07-24T14:22:28;29.50;93.80
37782;DHT22;23621;50.878;4.584;2022-07-24T14:24:54;29.40;94.40
37782;DHT22;23621;50.878;4.584;2022-07-24T14:27:33;29.20;93.90
37782;DHT22;23621;50.878;4.584;2022-07-24T14:30:02;29.30;94.90
37782;DHT22;23621;50.878;4.584;2022-07-24T14:32:28;29.60;92.40
37782;DHT22;23621;50.878;4.584;2022-07-24T14:34:54;29.80;93.30
37782;DHT22;23621;50.878;4.584;2022-07-24T14:37:20;29.80;92.70
37782;DHT22;23621;50.878;4.584;2022-07-24T14:39:46;29.90;93.10
37782;DHT22;23621;50.878;4.584;2022-07-24T14:42:12;29.70;93.10
37782;DHT22;23621;50.878;4.584;2022-07-24T14:44:37;30.00;92.80
37782;DHT22;23621;50.878;4.584;2022-07-24T14:47:03;30.40;92.80
37782;DHT22;23621;50.878;4.584;2022-07-24T14:49:32;30.00;92.90
37782;DHT22;23621;50.878;4.584;2022-07-24T14:51:58;30.00;92.80
37782;DHT22;23621;50.878;4.584;2022-07-24T14:54:25;29.80;92.70
37782;DHT22;23621;50.878;4.584;2022-07-24T14:56:51;30.20;92.20
37782;DHT22;23621;50.878;4.584;2022-07-24T14:59:17;30.20;92.50
37782;DHT22;23621;50.878;4.584;2022-07-24T15:01:42;30.30;92.20
37782;DHT22;23621;50.878;4.584;2022-07-24T15:04:08;30.50;91.20
37782;DHT22;23621;50.878;4.584;2022-07-24T15:06:35;30.20;91.10
37782;DHT22;23621;50.878;4.584;2022-07-24T15:09:02;30.00;92.40
37782;DHT22;23621;50.878;4.584;2022-07-24T15:11:28;30.10;91.40
37782;DHT22;23621;50.878;4.584;2022-07-24T15:13:53;30.60;90.20
37782;DHT22;23621;50.878;4.584;2022-07-24T15:16:20;31.20;89.80
37782;DHT22;23621;50.878;4.584;2022-07-24T15:18:46;31.30;89.80
37782;DHT22;23621;50.878;4.584;2022-07-24T15:21:12;31.70;88.00
37782;DHT22;23621;50.878;4.584;2022-07-24T15:23:38;32.20;88.10
37782;DHT22;23621;50.878;4.584;2022-07-24T15:28:30;32.90;85.10
37782;DHT22;23621;50.878;4.584;2022-07-24T15:30:57;32.70;85.80
37782;DHT22;23621;50.878;4.584;2022-07-24T15:33:23;32.80;85.50
37782;DHT22;23621;50.878;4.584;2022-07-24T15:35:49;33.10;84.70
37782;DHT22;23621;50.878;4.584;2022-07-24T15:38:15;33.10;84.80
37782;DHT22;23621;50.878;4.584;2022-07-24T15:40:43;34.20;82.50
37782;DHT22;23621;50.878;4.584;2022-07-24T15:43:09;34.40;81.70
37782;DHT22;23621;50.878;4.584;2022-07-24T15:45:36;35.70;76.70
37782;DHT22;23621;50.878;4.584;2022-07-24T15:48:02;36.10;75.80
37782;DHT22;23621;50.878;4.584;2022-07-24T15:50:28;35.90;75.30
37782;DHT22;23621;50.878;4.584;2022-07-24T15:52:53;36.20;75.40
37782;DHT22;23621;50.878;4.584;2022-07-24T15:55:19;37.30;72.00
37782;DHT22;23621;50.878;4.584;2022-07-24T15:57:45;37.80;69.60
37782;DHT22;23621;50.878;4.584;2022-07-24T16:00:12;38.00;68.40
37782;DHT22;23621;50.878;4.584;2022-07-24T16:02:37;38.10;67.00